CUMBERLAND SOUND AT SEA CAMP DOC GA US USGS current weather conditions

sailwx.info

Wind from 149 at 6 knots

Last reported at 2020-Jul-11 20:00 UTC.
Time now 2020-Jul-11 21:34 UTC

Location: N 30°46' W 081°28'.
View on Google Maps.

See reports from other nearby stations

  
Tides and Currents Weather Stations Pressure Air Temp Water Temp Dewpoint Dewpoint Depression Visibility Wind Speed Wind Dir Waves Ship Positions
date/time (UTC)wind fromknots sea level pressurealtimeterstation pressurevisibilityair tempwater tempwave heightnotes
2020-Jul-11 20:00 149 6
2020-Jul-11 19:00 146 2
2020-Jul-11 18:00 035 2
2020-Jul-11 17:00 215 2
2020-Jul-11 16:00 339 1
2020-Jul-11 15:00 282 2
2020-Jul-11 14:00 226 3
2020-Jul-11 13:00 278 6
2020-Jul-11 12:00 287 5
2020-Jul-11 11:00 252 7
2020-Jul-11 10:00 254 11
2020-Jul-11 09:00 244 7
2020-Jul-11 08:00 253 11
2020-Jul-11 07:00 216 7
2020-Jul-11 06:00 213 8
2020-Jul-11 05:00 210 8
2020-Jul-11 04:00 196 6
2020-Jul-11 03:00 139 1
2020-Jul-11 02:00 155 5
2020-Jul-11 01:00 166 4
2020-Jul-11 00:00 187 3
2020-Jul-10 23:00 140 1
2020-Jul-10 22:00 135 3
2020-Jul-10 21:00 320 2
2020-Jul-10 20:00 358 1
2020-Jul-10 19:00 318 3
2020-Jul-10 18:00 322 2
2020-Jul-10 17:00 339 7
2020-Jul-10 16:00 325 6
2020-Jul-10 15:00 293 5
2020-Jul-10 14:00 305 6
2020-Jul-10 13:00 280 5
2020-Jul-10 12:00 264 7
2020-Jul-10 11:00 245 8
2020-Jul-10 10:00 261 9
2020-Jul-10 09:00 285 4
2020-Jul-10 08:00 262 5
2020-Jul-10 07:00 253 8
2020-Jul-10 06:00 256 7
2020-Jul-10 05:00 244 4
2020-Jul-10 04:00 271 5
2020-Jul-10 03:00 243 6
2020-Jul-10 02:00 260 7
2020-Jul-10 01:00 261 4
2020-Jul-10 00:00 033 2
2020-Jul-09 23:00 181 1
2020-Jul-09 22:00 347 24
2020-Jul-09 21:00 018 1